Date,TemperatureHighF,TemperatureAvgF,TemperatureLowF,DewpointHighF,DewpointAvgF,DewpointLowF,HumidityHigh,HumidityAvg,HumidityLow,PressureMaxIn,PressureMinIn,WindSpeedMaxMPH,WindSpeedAvgMPH,GustSpeedMaxMPH,PrecipitationSumIn
2013-1-1,53,43,36,36,32,28,82,66,49,30.15,30.08,2,0,6,0.00
2013-1-2,57,42,31,34,29,24,81,63,38,30.13,30.00,0,0,2,0.00
2013-1-3,57,42,32,37,30,25,82,65,43,30.15,30.04,0,0,1,0.00
2013-1-4,58,45,35,38,33,29,85,65,40,30.17,30.04,2,0,2,0.00
2013-1-5,56,47,37,46,39,30,85,75,61,30.14,29.95,1,0,6,0.00
2013-1-6,50,49,46,46,44,42,87,84,82,30.01,29.93,0,0,0,0.00
2013-1-8,63,54,44,48,42,36,90,63,47,30.11,29.99,0,0,0,0.00
2013-1-9,56,47,41,46,40,35,87,77,67,30.03,29.88,4,0,4,0.00
2013-1-10,51,45,40,36,33,29,76,64,49,30.08,29.96,7,0,7,0.00
2013-1-11,53,43,33,36,31,25,80,64,48,30.16,30.01,5,0,5,0.00
2013-1-12,52,41,32,32,24,8,80,55,19,30.15,30.01,0,0,1,0.00
2013-1-13,51,38,29,25,20,6,69,51,19,30.17,30.05,2,0,6,0.00
2013-1-14,52,39,29,20,13,1,53,36,19,30.29,30.11,2,0,3,0.00
2013-1-15,56,41,30,28,22,18,67,48,26,30.37,30.27,0,0,2,0.00
2013-1-16,58,43,31,31,25,21,72,52,30,30.32,30.13,0,0,0,0.00
2013-1-17,63,45,32,35,29,22,76,55,33,30.15,30.01,1,0,3,0.00
2013-1-18,64,47,34,37,32,26,80,57,32,30.11,29.99,0,0,2,0.00
2013-1-19,64,47,34,38,32,25,79,59,37,30.12,30.01,0,0,4,0.00
2013-1-20,65,46,34,38,30,26,82,57,27,30.11,29.99,1,0,2,0.00
2013-1-21,65,45,33,37,30,24,79,58,29,30.06,29.94,0,0,1,0.00
2013-1-23,52,52,52,48,48,48,86,86,85,29.96,29.94,0,0,0,0.00
2013-1-24,56,54,51,52,50,48,91,87,81,30.05,29.93,0,0,0,0.00
2013-1-25,65,57,54,56,52,49,96,83,66,30.06,29.90,0,0,3,0.00
2013-1-26,59,52,43,50,42,36,91,71,47,29.97,29.88,3,0,4,0.00
2013-1-27,57,49,42,39,35,27,78,61,32,30.05,29.96,5,0,6,0.00
2013-1-28,59,49,41,42,37,33,81,64,45,30.17,30.04,4,0,8,0.00
2013-1-29,60,49,40,43,38,33,82,66,46,30.23,30.13,4,0,5,0.00
2013-1-30,68,52,40,45,38,34,87,60,34,30.21,30.11,0,0,2,0.00
2013-1-31,67,50,38,44,38,31,86,63,40,30.17,30.03,2,0,2,0.00
2013-2-1,68,52,39,46,40,32,89,65,40,30.09,29.97,1,0,3,0.00
2013-2-2,58,51,46,48,44,38,86,77,68,30.17,30.08,2,0,2,0.00
2013-2-3,60,51,44,46,41,36,83,68,52,30.13,30.00,2,0,3,0.00
2013-2-4,57,48,40,48,42,33,92,79,67,30.07,29.94,0,0,5,0.00
2013-2-5,57,50,42,44,42,36,86,73,59,30.04,29.95,4,0,5,0.00
2013-2-6,60,47,36,44,37,30,87,68,48,30.08,29.99,0,0,4,0.00
2013-2-7,57,46,38,45,35,30,84,68,41,30.06,29.88,4,0,4,0.00
2013-2-8,56,46,41,42,36,32,87,71,47,29.90,29.83,2,0,6,0.00
2013-2-9,59,46,34,34,27,23,78,52,26,29.98,29.87,0,0,2,0.00
2013-2-10,61,46,32,36,30,24,75,55,32,30.01,29.88,2,0,5,0.00
2013-2-11,65,49,35,37,28,19,81,50,19,30.11,29.94,3,0,3,0.00
2013-2-12,63,48,36,42,34,27,84,59,35,30.23,30.11,1,0,4,0.00
2013-2-13,65,50,36,43,37,29,82,62,41,30.22,30.08,0,0,4,0.00
2013-2-14,70,54,39,45,37,33,88,57,30,30.13,30.01,0,0,4,0.00
2013-2-15,74,56,41,42,38,33,79,53,28,30.14,30.05,1,0,2,0.00
2013-2-16,71,55,43,46,40,34,80,59,37,30.09,29.91,3,0,3,0.00
2013-2-17,65,53,46,46,41,37,84,65,42,29.94,29.83,4,0,4,0.00
2013-2-18,54,48,41,43,37,34,84,67,49,29.93,29.85,2,0,4,0.00
2013-2-19,51,46,41,42,37,33,81,72,62,29.86,29.64,6,0,6,0.00
2013-2-20,61,47,35,40,34,28,85,63,34,29.96,29.72,5,0,5,0.00
2013-2-21,61,49,38,40,32,27,83,57,27,30.05,29.93,4,0,4,0.00
2013-2-22,63,49,35,41,34,27,79,57,34,30.14,30.04,0,0,6,0.00
2013-2-23,60,52,46,44,37,31,79,58,35,30.13,30.02,7,0,8,0.00
2013-2-24,65,52,41,36,27,18,61,41,19,30.14,30.03,1,0,3,0.00
2013-2-25,64,50,37,41,34,27,76,55,37,30.16,30.03,5,0,5,0.00
2013-2-26,69,52,38,37,29,21,82,47,19,30.09,29.99,2,0,4,0.00
2013-2-27,69,49,37,41,32,27,75,55,24,30.19,30.08,2,0,3,0.00
2013-3-4,60,55,47,44,41,38,71,60,51,30.01,29.93,3,0,3,0.00
2013-3-5,64,54,46,44,40,36,79,60,38,29.95,29.73,2,0,5,0.00
2013-3-6,58,52,44,46,40,35,83,65,44,29.93,29.73,3,0,114,0.00
2013-3-7,61,50,40,44,38,32,82,65,34,29.87,29.71,4,0,4,0.00
2013-3-8,60,51,46,45,41,36,88,70,41,29.96,29.70,4,0,10,0.00
2013-3-9,68,54,43,44,37,33,82,56,27,30.18,29.95,4,0,5,0.00
2013-3-10,72,55,40,45,36,26,84,54,19,30.21,30.10,3,0,3,0.00
2013-3-11,74,56,41,46,39,34,82,56,28,30.14,29.96,1,0,4,0.00
2013-3-12,75,59,49,50,45,40,81,62,36,30.02,29.91,2,0,5,0.00
2013-3-13,79,62,48,52,46,41,86,61,31,30.03,29.90,6,0,6,0.00
2013-3-14,72,60,50,52,45,33,82,60,26,30.03,29.95,3,0,4,0.00
2013-3-15,71,57,46,49,44,39,81,62,33,30.00,29.91,114,0,114,0.00
2013-3-16,72,59,52,50,44,32,83,61,25,29.98,29.89,2,0,5,0.00
2013-3-17,70,57,45,42,38,34,74,51,27,30.02,29.90,5,0,5,0.00
2013-3-18,66,55,44,45,40,35,78,59,45,30.00,29.89,1,0,3,0.00
2013-3-19,69,57,48,47,41,30,77,57,31,30.00,29.92,5,0,5,0.00
2013-3-20,70,59,53,54,49,46,87,70,50,30.00,29.92,4,0,5,0.00
2013-3-21,68,56,48,47,40,36,73,56,32,30.00,29.87,114,1,114,0.00
2013-3-22,70,56,44,39,30,19,74,43,19,29.97,29.87,5,0,5,0.00
2013-3-23,70,56,42,40,30,17,66,41,19,30.01,29.89,2,0,2,0.00
2013-3-24,71,56,44,45,41,35,78,57,34,29.96,29.83,2,0,4,0.00
2013-3-25,60,53,45,45,41,37,80,64,52,29.89,29.82,2,0,4,0.00
2013-3-26,68,56,47,46,42,39,76,61,41,29.88,29.79,4,0,4,0.00
2013-3-27,69,59,51,51,46,41,75,63,50,29.87,29.80,2,0,4,0.00
2013-3-28,72,63,57,53,50,48,82,64,46,29.95,29.86,3,0,4,0.00
2013-3-29,79,64,54,52,49,46,82,62,35,29.95,29.84,5,0,5,0.00
2013-3-30,73,63,57,54,51,48,79,66,44,29.93,29.81,2,0,4,0.00
2013-3-31,71,62,55,54,49,44,86,64,41,29.92,29.83,5,0,5,0.00
2013-4-1,70,61,56,54,49,45,86,67,48,30.01,29.90,3,0,6,0.00
2013-4-2,71,58,49,51,47,42,83,67,45,30.04,29.94,3,0,6,0.00
2013-4-3,79,61,53,51,48,46,80,64,34,30.01,29.82,3,0,5,0.00
2013-4-4,70,60,55,56,51,47,88,72,53,29.98,29.86,5,0,5,0.00
2013-4-5,70,61,56,51,48,44,77,64,45,30.05,29.97,6,0,9,0.00
2013-4-6,69,60,53,53,48,45,78,64,47,30.06,29.98,5,0,6,0.00
2013-4-7,69,59,53,51,47,42,81,65,45,30.04,29.74,6,0,6,0.00
2013-4-8,67,56,50,48,36,27,80,49,23,29.88,29.70,114,1,114,0.00
2013-4-9,76,63,52,38,33,26,57,36,19,29.95,29.88,6,0,114,0.00
2013-4-10,88,69,54,46,40,36,57,38,19,30.03,29.90,5,0,11,0.00
2013-4-11,74,62,54,48,43,38,65,50,28,29.94,29.71,3,0,6,0.00
2013-4-12,75,60,48,50,44,39,74,56,37,29.79,29.69,1,0,4,0.00
2013-4-13,72,60,50,49,41,35,74,52,32,29.78,29.71,4,0,7,0.00
2013-4-14,72,58,45,43,37,30,71,49,21,29.80,29.73,7,0,9,0.00
2013-4-15,60,53,48,45,36,30,72,54,34,29.83,29.73,9,0,10,0.00
2013-4-16,69,55,41,36,30,22,68,42,19,30.00,29.83,6,0,6,0.00
2013-4-17,71,60,49,34,27,20,51,30,19,30.11,30.00,8,0,114,0.00
2013-4-18,79,62,45,42,33,24,61,37,19,30.12,30.02,5,0,5,0.00
2013-4-19,82,65,50,48,42,37,74,46,22,30.09,29.93,4,0,5,0.00
2013-4-20,82,65,52,46,42,34,69,45,19,29.97,29.82,3,0,4,0.00
2013-4-21,88,70,52,51,42,33,76,43,19,29.90,29.77,3,0,5,0.00
2013-4-22,90,71,55,48,42,35,67,39,19,29.82,29.68,4,0,6,0.00
2013-4-23,84,66,54,45,39,24,60,40,19,29.79,29.71,6,0,6,0.00
2013-4-24,70,61,52,50,46,41,73,59,46,29.81,29.70,3,0,5,0.00
2013-4-25,69,60,52,50,47,44,78,62,50,30.00,29.81,5,0,5,0.00
2013-4-26,70,60,53,50,46,44,72,61,46,30.08,29.99,3,0,5,0.00
2013-4-27,74,60,54,52,47,44,73,64,43,30.09,29.96,3,0,3,0.00
2013-5-2,93,84,69,45,41,30,37,23,19,29.99,29.90,1,0,4,0.00
2013-5-3,92,74,56,46,40,35,50,32,19,29.95,29.65,4,0,4,0.00
2013-5-5,76,68,61,46,44,42,53,42,30,29.66,29.53,2,0,6,0.00
2013-5-6,75,65,57,48,45,43,66,50,33,29.81,29.66,0,0,2,0.00
2013-5-7,76,65,58,51,47,42,67,52,38,29.91,29.80,2,0,4,0.00
2013-5-8,70,61,56,51,48,45,74,63,44,30.02,29.90,2,0,4,0.00
2013-5-9,71,61,55,50,47,44,71,60,43,30.05,29.95,2,0,4,0.00
2013-5-10,70,61,56,52,49,45,75,65,52,30.06,29.97,4,0,4,0.00
2013-5-11,84,67,58,56,52,49,77,60,33,30.02,29.89,2,0,4,0.00
2013-5-12,80,67,55,58,51,47,79,59,41,30.00,29.89,2,0,2,0.00
2013-5-13,78,66,54,55,49,42,77,57,34,29.95,29.82,1,0,4,0.00
2013-5-14,78,65,55,52,45,37,74,50,27,29.89,29.79,3,0,5,0.00
2013-5-15,73,62,52,45,42,38,67,48,31,29.93,29.88,3,0,6,0.00
2013-5-16,74,63,57,52,46,43,70,55,35,29.91,29.83,6,0,6,0.00
2013-5-17,73,61,52,48,42,38,70,52,29,29.96,29.85,4,0,6,0.00
2013-5-18,77,64,49,50,43,38,70,49,26,30.00,29.93,5,0,5,0.00
2013-5-19,86,69,53,48,42,36,70,42,19,29.98,29.82,3,0,4,0.00
2013-5-20,91,71,55,52,44,36,71,43,19,29.86,29.77,2,0,5,0.00
2013-5-21,74,63,54,48,41,32,66,47,23,29.86,29.79,5,0,6,0.00
2013-5-22,69,57,-22,36,30,-35,54,39,19,29.88,29.80,6,0,114,0.00
2013-5-23,71,59,49,42,37,32,61,45,28,29.87,29.80,7,0,7,0.00
2013-5-24,72,58,47,45,39,33,70,50,27,29.87,29.80,6,0,8,0.00
2013-5-25,70,59,49,44,40,37,66,51,33,29.93,29.85,4,0,114,0.00
2013-5-26,75,64,55,51,47,43,72,56,34,30.01,29.92,5,0,114,0.00
2013-5-27,69,62,54,52,48,44,71,62,50,30.01,29.86,4,0,6,0.00
2013-5-28,73,65,59,56,50,44,77,61,38,29.86,29.78,4,0,5,0.00
2013-5-29,74,64,58,54,46,39,63,52,36,29.83,29.77,4,0,6,0.00
2013-5-30,78,64,51,50,41,31,71,47,19,29.85,29.80,6,0,6,0.00
2013-5-31,90,69,52,51,44,38,69,45,19,29.88,29.75,3,0,3,0.00
2013-6-1,90,69,57,54,48,44,71,51,22,29.80,29.64,2,0,3,0.00